Inicio METAR Ruta Wind Satelite

Informe Meteorológico

Fecha: 2020/09/19 19:03:15 Local
2020.09.20 00:03 UTC


Estado: VENCIDO
Operación:VFR
Villavicencio / Vanguardia, Colombia (SKVV) 04-10N 073-37W 431M
2020.09.19 2300 UTC
Wind: Calm:0
Visibility: greater than 7 mile(s):0
Sky conditions: mostly cloudy
Weather: light drizzle
Temperature: 71 F (22 C)
Dew Point: 68 F (20 C)
Relative Humidity: 88%
Pressure (altimeter): 29.87 in. Hg (1011 hPa)
ob: SKVV 192300Z 00000KT 9999 -DZ SCT017 BKN090 22/20 A2987
cycle: 23

SKVV 192200Z 00000KT 5000 -DZ SCT015 BKN090 23/22 A2990 RETSRA
SKVV 192100Z 02005KT 5000 -TSRA BKN0150CB BKN090 22/21 A2990 RERA RMK CB/W
SKVV 192000Z 27005KT 5000 RA BKN010 BKN090 23/19 A2989
SKVV 191900Z 17005KT 9999 SCT023 SCT090 31/22 A2982
SKVV 191800Z 11004KT 9999 FEW023 SCT200 31/22A2985